Lynncamp, West Virginia
Current Conditions -  °F | °C
As of 6:30 AM on Friday 24 Oct 2014 (Local Time) from KPKB Reporting Station
Moderate Fog Moderate Fog  
Wind Chill: 36°   Ceiling: 200
Heat Index: 36°   Visibility: 0.5mi
Dew Point: 34°   Wind: 0mph
Humidity: 93%   Direction: NA
Pressure: 30.15"   Gusts: NA
Location:  38.9676°N, 81.429°W
Report Text: KPKB 241030Z AUTO 00000KT 1/2SM FG VV002 02/01 A3015 RMK AO2 T00220011 RVRNO
Loading
Personal Weather Stations






























Interactive Weather Map
Tropical Storm Tracking
New forecast layout! Learn more

10-Day Weather Forecast

Advertisements
Track Severe Weather on mobile